sensor_id;sensor_type;location;lat;lon;timestamp;temperature;humidity
8824;DHT22;4448;50.904;4.694;2022-09-17T00:00:16;10.70;99.90
8824;DHT22;4448;50.904;4.694;2022-09-17T00:02:42;10.70;99.90
8824;DHT22;4448;50.904;4.694;2022-09-17T00:05:12;10.70;99.90
8824;DHT22;4448;50.904;4.694;2022-09-17T00:07:37;10.80;99.90
8824;DHT22;4448;50.904;4.694;2022-09-17T00:10:04;10.80;99.90
8824;DHT22;4448;50.904;4.694;2022-09-17T00:12:30;10.80;99.90
8824;DHT22;4448;50.904;4.694;2022-09-17T00:14:56;10.80;99.90
8824;DHT22;4448;50.904;4.694;2022-09-17T00:17:22;10.80;99.90
8824;DHT22;4448;50.904;4.694;2022-09-17T00:19:48;10.80;99.90
8824;DHT22;4448;50.904;4.694;2022-09-17T00:22:14;10.80;99.90
8824;DHT22;4448;50.904;4.694;2022-09-17T00:24:40;10.80;99.90
8824;DHT22;4448;50.904;4.694;2022-09-17T00:27:06;10.80;99.90
8824;DHT22;4448;50.904;4.694;2022-09-17T00:29:31;10.80;99.90
8824;DHT22;4448;50.904;4.694;2022-09-17T00:31:57;10.80;99.90
8824;DHT22;4448;50.904;4.694;2022-09-17T00:34:23;10.80;99.90
8824;DHT22;4448;50.904;4.694;2022-09-17T00:36:48;10.80;99.90
8824;DHT22;4448;50.904;4.694;2022-09-17T00:39:14;10.80;99.90
8824;DHT22;4448;50.904;4.694;2022-09-17T00:41:40;10.90;99.90
8824;DHT22;4448;50.904;4.694;2022-09-17T00:44:46;10.80;99.90
8824;DHT22;4448;50.904;4.694;2022-09-17T00:49:48;10.90;99.90
8824;DHT22;4448;50.904;4.694;2022-09-17T00:52:23;10.90;99.90
8824;DHT22;4448;50.904;4.694;2022-09-17T00:54:57;10.90;99.90
8824;DHT22;4448;50.904;4.694;2022-09-17T00:57:24;10.90;99.90
8824;DHT22;4448;50.904;4.694;2022-09-17T00:59:51;10.90;99.90
8824;DHT22;4448;50.904;4.694;2022-09-17T01:02:17;11.00;99.90
8824;DHT22;4448;50.904;4.694;2022-09-17T01:04:43;11.00;99.90
8824;DHT22;4448;50.904;4.694;2022-09-17T01:32:36;11.10;99.90
8824;DHT22;4448;50.904;4.694;2022-09-17T01:35:13;11.10;99.90
8824;DHT22;4448;50.904;4.694;2022-09-17T01:45:36;10.90;99.90
8824;DHT22;4448;50.904;4.694;2022-09-17T01:48:10;10.90;99.90
8824;DHT22;4448;50.904;4.694;2022-09-17T01:50:42;10.90;99.90
8824;DHT22;4448;50.904;4.694;2022-09-17T01:53:09;10.90;99.90
8824;DHT22;4448;50.904;4.694;2022-09-17T01:55:37;11.00;99.90
8824;DHT22;4448;50.904;4.694;2022-09-17T01:58:11;11.00;99.90
8824;DHT22;4448;50.904;4.694;2022-09-17T02:00:42;11.00;99.90
8824;DHT22;4448;50.904;4.694;2022-09-17T02:03:18;11.00;99.90
8824;DHT22;4448;50.904;4.694;2022-09-17T02:05:55;11.00;99.90
8824;DHT22;4448;50.904;4.694;2022-09-17T02:08:47;11.00;99.90
8824;DHT22;4448;50.904;4.694;2022-09-17T02:11:14;11.00;99.90
8824;DHT22;4448;50.904;4.694;2022-09-17T02:13:57;10.90;99.90
8824;DHT22;4448;50.904;4.694;2022-09-17T02:16:32;11.00;99.90
8824;DHT22;4448;50.904;4.694;2022-09-17T02:19:08;11.00;99.90
8824;DHT22;4448;50.904;4.694;2022-09-17T02:21:47;11.00;99.90
8824;DHT22;4448;50.904;4.694;2022-09-17T02:24:26;11.00;99.90
8824;DHT22;4448;50.904;4.694;2022-09-17T02:27:10;11.00;99.90
8824;DHT22;4448;50.904;4.694;2022-09-17T02:29:38;11.00;99.90
8824;DHT22;4448;50.904;4.694;2022-09-17T02:32:05;11.00;99.90
8824;DHT22;4448;50.904;4.694;2022-09-17T02:34:31;11.00;99.90
8824;DHT22;4448;50.904;4.694;2022-09-17T02:36:57;11.00;99.90
8824;DHT22;4448;50.904;4.694;2022-09-17T02:39:24;11.00;99.90
8824;DHT22;4448;50.904;4.694;2022-09-17T02:45:04;11.00;99.90
8824;DHT22;4448;50.904;4.694;2022-09-17T02:55:36;11.10;99.90
8824;DHT22;4448;50.904;4.694;2022-09-17T03:00:39;11.10;99.90
8824;DHT22;4448;50.904;4.694;2022-09-17T03:03:09;11.10;99.90
8824;DHT22;4448;50.904;4.694;2022-09-17T03:05:38;11.10;99.90
8824;DHT22;4448;50.904;4.694;2022-09-17T03:08:07;11.10;99.90
8824;DHT22;4448;50.904;4.694;2022-09-17T03:10:33;11.10;99.90
8824;DHT22;4448;50.904;4.694;2022-09-17T03:12:59;11.00;99.90
8824;DHT22;4448;50.904;4.694;2022-09-17T03:15:25;10.90;99.90
8824;DHT22;4448;50.904;4.694;2022-09-17T03:17:51;10.90;99.90
8824;DHT22;4448;50.904;4.694;2022-09-17T03:20:16;10.90;99.90
8824;DHT22;4448;50.904;4.694;2022-09-17T03:22:43;10.80;99.90
8824;DHT22;4448;50.904;4.694;2022-09-17T03:25:09;10.70;99.90
8824;DHT22;4448;50.904;4.694;2022-09-17T03:27:35;10.70;99.90
8824;DHT22;4448;50.904;4.694;2022-09-17T03:30:01;10.70;99.90
8824;DHT22;4448;50.904;4.694;2022-09-17T03:32:26;10.70;99.90
8824;DHT22;4448;50.904;4.694;2022-09-17T03:34:52;10.70;99.90
8824;DHT22;4448;50.904;4.694;2022-09-17T03:37:19;10.70;99.90
8824;DHT22;4448;50.904;4.694;2022-09-17T03:39:44;10.70;99.90
8824;DHT22;4448;50.904;4.694;2022-09-17T03:42:10;10.70;99.90
8824;DHT22;4448;50.904;4.694;2022-09-17T03:44:36;10.70;99.90
8824;DHT22;4448;50.904;4.694;2022-09-17T03:47:02;10.70;99.90
8824;DHT22;4448;50.904;4.694;2022-09-17T03:49:27;10.70;99.90
8824;DHT22;4448;50.904;4.694;2022-09-17T03:51:53;10.60;99.90
8824;DHT22;4448;50.904;4.694;2022-09-17T03:54:19;10.60;99.90
8824;DHT22;4448;50.904;4.694;2022-09-17T03:56:44;10.50;99.90
8824;DHT22;4448;50.904;4.694;2022-09-17T03:59:10;10.50;99.90
8824;DHT22;4448;50.904;4.694;2022-09-17T04:01:35;10.50;99.90
8824;DHT22;4448;50.904;4.694;2022-09-17T04:04:02;10.50;99.90
8824;DHT22;4448;50.904;4.694;2022-09-17T04:06:28;10.50;99.90
8824;DHT22;4448;50.904;4.694;2022-09-17T04:08:54;10.50;99.90
8824;DHT22;4448;50.904;4.694;2022-09-17T04:11:21;10.50;99.90
8824;DHT22;4448;50.904;4.694;2022-09-17T04:13:47;10.50;99.90
8824;DHT22;4448;50.904;4.694;2022-09-17T04:16:13;10.50;99.90
8824;DHT22;4448;50.904;4.694;2022-09-17T04:18:39;10.40;99.90
8824;DHT22;4448;50.904;4.694;2022-09-17T04:21:05;10.40;99.90
8824;DHT22;4448;50.904;4.694;2022-09-17T04:23:30;10.40;99.90
8824;DHT22;4448;50.904;4.694;2022-09-17T04:25:56;10.40;99.90
8824;DHT22;4448;50.904;4.694;2022-09-17T04:28:22;10.40;99.90
8824;DHT22;4448;50.904;4.694;2022-09-17T04:30:48;10.40;99.90
8824;DHT22;4448;50.904;4.694;2022-09-17T04:33:14;10.40;99.90
8824;DHT22;4448;50.904;4.694;2022-09-17T04:35:39;10.50;99.90
8824;DHT22;4448;50.904;4.694;2022-09-17T04:38:05;10.50;99.90
8824;DHT22;4448;50.904;4.694;2022-09-17T04:40:31;10.50;99.90
8824;DHT22;4448;50.904;4.694;2022-09-17T04:42:58;10.50;99.90
8824;DHT22;4448;50.904;4.694;2022-09-17T04:45:24;10.50;99.90
8824;DHT22;4448;50.904;4.694;2022-09-17T04:47:51;10.50;99.90
8824;DHT22;4448;50.904;4.694;2022-09-17T04:50:17;10.50;99.90
8824;DHT22;4448;50.904;4.694;2022-09-17T04:52:44;10.60;99.90
8824;DHT22;4448;50.904;4.694;2022-09-17T04:55:10;10.60;99.90
8824;DHT22;4448;50.904;4.694;2022-09-17T04:57:36;10.70;99.90
8824;DHT22;4448;50.904;4.694;2022-09-17T05:00:04;10.70;99.90
8824;DHT22;4448;50.904;4.694;2022-09-17T05:02:31;10.70;99.90
8824;DHT22;4448;50.904;4.694;2022-09-17T05:04:57;10.70;99.90
8824;DHT22;4448;50.904;4.694;2022-09-17T05:07:24;10.70;99.90
8824;DHT22;4448;50.904;4.694;2022-09-17T05:09:49;10.70;99.90
8824;DHT22;4448;50.904;4.694;2022-09-17T05:12:15;10.70;99.90
8824;DHT22;4448;50.904;4.694;2022-09-17T05:14:41;10.60;99.90
8824;DHT22;4448;50.904;4.694;2022-09-17T05:17:06;10.50;99.90
8824;DHT22;4448;50.904;4.694;2022-09-17T05:19:32;10.50;99.90
8824;DHT22;4448;50.904;4.694;2022-09-17T05:21:57;10.40;99.90
8824;DHT22;4448;50.904;4.694;2022-09-17T05:24:23;10.40;99.90
8824;DHT22;4448;50.904;4.694;2022-09-17T05:26:49;10.40;99.90
8824;DHT22;4448;50.904;4.694;2022-09-17T05:29:14;10.40;99.90
8824;DHT22;4448;50.904;4.694;2022-09-17T05:31:40;10.40;99.90
8824;DHT22;4448;50.904;4.694;2022-09-17T05:34:05;10.40;99.90
8824;DHT22;4448;50.904;4.694;2022-09-17T05:36:31;10.40;99.90
8824;DHT22;4448;50.904;4.694;2022-09-17T05:38:57;10.50;99.90
8824;DHT22;4448;50.904;4.694;2022-09-17T05:41:22;10.50;99.90
8824;DHT22;4448;50.904;4.694;2022-09-17T05:43:48;10.50;99.90
8824;DHT22;4448;50.904;4.694;2022-09-17T05:46:13;10.60;99.90
8824;DHT22;4448;50.904;4.694;2022-09-17T05:48:39;10.60;99.90
8824;DHT22;4448;50.904;4.694;2022-09-17T05:51:05;10.60;99.90
8824;DHT22;4448;50.904;4.694;2022-09-17T05:53:30;10.60;99.90
8824;DHT22;4448;50.904;4.694;2022-09-17T05:55:59;10.60;99.90
8824;DHT22;4448;50.904;4.694;2022-09-17T05:58:25;10.70;99.90
8824;DHT22;4448;50.904;4.694;2022-09-17T06:00:51;10.70;99.90
8824;DHT22;4448;50.904;4.694;2022-09-17T06:03:19;10.70;99.90
8824;DHT22;4448;50.904;4.694;2022-09-17T06:05:56;10.70;99.90
8824;DHT22;4448;50.904;4.694;2022-09-17T06:08:23;10.60;99.90
8824;DHT22;4448;50.904;4.694;2022-09-17T06:10:49;10.80;99.90
8824;DHT22;4448;50.904;4.694;2022-09-17T06:13:19;10.80;99.90
8824;DHT22;4448;50.904;4.694;2022-09-17T06:15:49;10.90;99.90
8824;DHT22;4448;50.904;4.694;2022-09-17T06:18:15;10.90;99.90
8824;DHT22;4448;50.904;4.694;2022-09-17T06:20:41;11.00;99.90
8824;DHT22;4448;50.904;4.694;2022-09-17T06:23:07;11.00;99.90
8824;DHT22;4448;50.904;4.694;2022-09-17T06:25:32;11.10;99.90
8824;DHT22;4448;50.904;4.694;2022-09-17T06:28:01;11.10;99.90
8824;DHT22;4448;50.904;4.694;2022-09-17T06:30:27;11.10;99.90
8824;DHT22;4448;50.904;4.694;2022-09-17T06:32:53;11.10;99.90
8824;DHT22;4448;50.904;4.694;2022-09-17T06:35:19;11.10;99.90
8824;DHT22;4448;50.904;4.694;2022-09-17T06:37:44;11.10;99.90
8824;DHT22;4448;50.904;4.694;2022-09-17T06:40:10;11.10;99.90
8824;DHT22;4448;50.904;4.694;2022-09-17T06:42:36;11.10;99.90
8824;DHT22;4448;50.904;4.694;2022-09-17T06:45:02;11.10;99.90
8824;DHT22;4448;50.904;4.694;2022-09-17T06:47:28;11.10;99.90
8824;DHT22;4448;50.904;4.694;2022-09-17T06:49:53;11.20;99.90
8824;DHT22;4448;50.904;4.694;2022-09-17T06:52:21;11.30;99.90
8824;DHT22;4448;50.904;4.694;2022-09-17T06:54:47;11.30;99.90
8824;DHT22;4448;50.904;4.694;2022-09-17T06:57:12;11.50;99.90
8824;DHT22;4448;50.904;4.694;2022-09-17T06:59:38;12.10;99.90
8824;DHT22;4448;50.904;4.694;2022-09-17T07:02:04;12.80;99.90
8824;DHT22;4448;50.904;4.694;2022-09-17T07:04:29;12.80;99.90
8824;DHT22;4448;50.904;4.694;2022-09-17T07:06:55;12.80;99.90
8824;DHT22;4448;50.904;4.694;2022-09-17T07:09:21;13.10;99.90
8824;DHT22;4448;50.904;4.694;2022-09-17T07:11:46;13.60;99.90
8824;DHT22;4448;50.904;4.694;2022-09-17T07:14:12;14.10;99.90
8824;DHT22;4448;50.904;4.694;2022-09-17T07:16:38;14.70;99.90
8824;DHT22;4448;50.904;4.694;2022-09-17T07:19:04;15.00;99.90
8824;DHT22;4448;50.904;4.694;2022-09-17T07:21:29;15.40;99.90
8824;DHT22;4448;50.904;4.694;2022-09-17T07:23:55;15.70;99.90
8824;DHT22;4448;50.904;4.694;2022-09-17T07:26:21;15.60;99.90
8824;DHT22;4448;50.904;4.694;2022-09-17T07:28:46;15.40;99.90
8824;DHT22;4448;50.904;4.694;2022-09-17T07:31:13;15.20;99.90
8824;DHT22;4448;50.904;4.694;2022-09-17T07:33:39;14.60;99.90
8824;DHT22;4448;50.904;4.694;2022-09-17T07:36:13;14.00;99.90
8824;DHT22;4448;50.904;4.694;2022-09-17T07:38:39;13.50;99.90
8824;DHT22;4448;50.904;4.694;2022-09-17T07:41:09;13.10;99.90
8824;DHT22;4448;50.904;4.694;2022-09-17T07:43:39;12.90;99.90
8824;DHT22;4448;50.904;4.694;2022-09-17T07:46:06;12.90;99.90
8824;DHT22;4448;50.904;4.694;2022-09-17T07:48:33;13.10;99.90
8824;DHT22;4448;50.904;4.694;2022-09-17T07:50:59;13.10;99.90
8824;DHT22;4448;50.904;4.694;2022-09-17T07:53:25;13.00;99.90
8824;DHT22;4448;50.904;4.694;2022-09-17T07:55:56;12.90;99.90
8824;DHT22;4448;50.904;4.694;2022-09-17T07:58:23;12.80;99.90
8824;DHT22;4448;50.904;4.694;2022-09-17T08:00:52;12.70;99.90
8824;DHT22;4448;50.904;4.694;2022-09-17T08:03:18;13.40;99.90
8824;DHT22;4448;50.904;4.694;2022-09-17T08:05:43;14.10;99.90
8824;DHT22;4448;50.904;4.694;2022-09-17T08:08:09;14.40;99.90
8824;DHT22;4448;50.904;4.694;2022-09-17T08:10:34;14.30;99.90
8824;DHT22;4448;50.904;4.694;2022-09-17T08:13:00;14.10;99.90
8824;DHT22;4448;50.904;4.694;2022-09-17T08:15:26;14.10;99.90
8824;DHT22;4448;50.904;4.694;2022-09-17T08:17:52;14.00;99.90
8824;DHT22;4448;50.904;4.694;2022-09-17T08:20:18;13.90;99.90
8824;DHT22;4448;50.904;4.694;2022-09-17T08:22:44;14.00;99.90
8824;DHT22;4448;50.904;4.694;2022-09-17T08:25:10;14.60;99.90
8824;DHT22;4448;50.904;4.694;2022-09-17T08:27:36;15.20;99.90
8824;DHT22;4448;50.904;4.694;2022-09-17T08:30:06;15.30;99.90
8824;DHT22;4448;50.904;4.694;2022-09-17T08:32:33;15.10;99.90
8824;DHT22;4448;50.904;4.694;2022-09-17T08:35:01;14.80;99.90
8824;DHT22;4448;50.904;4.694;2022-09-17T08:37:27;14.50;99.90
8824;DHT22;4448;50.904;4.694;2022-09-17T08:39:55;14.20;99.90
8824;DHT22;4448;50.904;4.694;2022-09-17T08:42:51;14.10;99.90
8824;DHT22;4448;50.904;4.694;2022-09-17T08:45:21;14.10;99.90
8824;DHT22;4448;50.904;4.694;2022-09-17T08:47:47;14.00;99.90
8824;DHT22;4448;50.904;4.694;2022-09-17T08:50:14;14.00;99.90
8824;DHT22;4448;50.904;4.694;2022-09-17T08:55:39;13.80;99.90
8824;DHT22;4448;50.904;4.694;2022-09-17T08:58:27;14.10;99.90
8824;DHT22;4448;50.904;4.694;2022-09-17T09:06:34;16.80;99.90
8824;DHT22;4448;50.904;4.694;2022-09-17T09:09:10;16.90;99.90
8824;DHT22;4448;50.904;4.694;2022-09-17T09:11:39;16.60;99.90
8824;DHT22;4448;50.904;4.694;2022-09-17T09:14:21;16.20;99.90
8824;DHT22;4448;50.904;4.694;2022-09-17T09:16:48;15.80;99.90
8824;DHT22;4448;50.904;4.694;2022-09-17T09:25:41;14.40;99.90
8824;DHT22;4448;50.904;4.694;2022-09-17T09:30:21;14.10;99.90
8824;DHT22;4448;50.904;4.694;2022-09-17T09:35:20;14.60;99.90
8824;DHT22;4448;50.904;4.694;2022-09-17T09:38:02;14.70;99.90
8824;DHT22;4448;50.904;4.694;2022-09-17T09:40:46;15.30;99.90
8824;DHT22;4448;50.904;4.694;2022-09-17T09:48:51;17.00;99.90
8824;DHT22;4448;50.904;4.694;2022-09-17T09:57:17;16.30;99.90
8824;DHT22;4448;50.904;4.694;2022-09-17T09:59:49;16.30;99.90
8824;DHT22;4448;50.904;4.694;2022-09-17T10:02:16;16.80;99.90
8824;DHT22;4448;50.904;4.694;2022-09-17T10:04:42;17.10;99.90
8824;DHT22;4448;50.904;4.694;2022-09-17T10:07:10;17.00;99.90
8824;DHT22;4448;50.904;4.694;2022-09-17T10:09:37;16.90;99.90
8824;DHT22;4448;50.904;4.694;2022-09-17T10:14:37;16.00;99.90
8824;DHT22;4448;50.904;4.694;2022-09-17T10:17:25;15.60;99.90
8824;DHT22;4448;50.904;4.694;2022-09-17T10:25:03;14.00;99.90
8824;DHT22;4448;50.904;4.694;2022-09-17T10:27:30;13.60;99.90
8824;DHT22;4448;50.904;4.694;2022-09-17T10:32:28;13.00;99.90
8824;DHT22;4448;50.904;4.694;2022-09-17T10:34:58;12.80;99.90
8824;DHT22;4448;50.904;4.694;2022-09-17T10:37:44;12.70;99.90
8824;DHT22;4448;50.904;4.694;2022-09-17T10:40:30;12.50;99.90
8824;DHT22;4448;50.904;4.694;2022-09-17T10:45:43;12.20;99.90
8824;DHT22;4448;50.904;4.694;2022-09-17T10:48:17;12.10;99.90
8824;DHT22;4448;50.904;4.694;2022-09-17T10:50:49;12.10;99.90
8824;DHT22;4448;50.904;4.694;2022-09-17T10:53:17;12.20;99.90
8824;DHT22;4448;50.904;4.694;2022-09-17T11:01:14;12.80;99.90
8824;DHT22;4448;50.904;4.694;2022-09-17T11:04:02;13.20;99.90
8824;DHT22;4448;50.904;4.694;2022-09-17T11:18:15;13.10;99.90
8824;DHT22;4448;50.904;4.694;2022-09-17T11:32:45;13.20;99.90
8824;DHT22;4448;50.904;4.694;2022-09-17T11:43:28;13.20;99.90
8824;DHT22;4448;50.904;4.694;2022-09-17T11:49:03;13.00;99.90
8824;DHT22;4448;50.904;4.694;2022-09-17T11:51:36;13.10;99.90
8824;DHT22;4448;50.904;4.694;2022-09-17T11:54:21;13.10;99.90
8824;DHT22;4448;50.904;4.694;2022-09-17T11:56:50;13.30;99.90
8824;DHT22;4448;50.904;4.694;2022-09-17T11:59:29;13.50;99.90
8824;DHT22;4448;50.904;4.694;2022-09-17T12:05:14;14.70;99.90
8824;DHT22;4448;50.904;4.694;2022-09-17T12:07:47;15.40;99.90
8824;DHT22;4448;50.904;4.694;2022-09-17T12:13:01;16.90;99.90
8824;DHT22;4448;50.904;4.694;2022-09-17T12:15:30;17.00;99.90
8824;DHT22;4448;50.904;4.694;2022-09-17T12:20:48;16.70;99.90
8824;DHT22;4448;50.904;4.694;2022-09-17T12:23:20;17.30;99.90
8824;DHT22;4448;50.904;4.694;2022-09-17T12:28:37;17.70;99.90
8824;DHT22;4448;50.904;4.694;2022-09-17T12:31:43;18.60;99.90
8824;DHT22;4448;50.904;4.694;2022-09-17T12:34:21;19.40;99.90
8824;DHT22;4448;50.904;4.694;2022-09-17T12:36:59;19.70;99.90
8824;DHT22;4448;50.904;4.694;2022-09-17T12:45:42;21.40;99.90
8824;DHT22;4448;50.904;4.694;2022-09-17T12:51:42;22.20;99.90
8824;DHT22;4448;50.904;4.694;2022-09-17T12:59:31;22.80;99.90
8824;DHT22;4448;50.904;4.694;2022-09-17T13:02:03;21.80;99.90
8824;DHT22;4448;50.904;4.694;2022-09-17T13:08:01;19.70;99.90
8824;DHT22;4448;50.904;4.694;2022-09-17T13:10:48;19.10;99.90
8824;DHT22;4448;50.904;4.694;2022-09-17T13:16:24;19.70;99.90
8824;DHT22;4448;50.904;4.694;2022-09-17T13:21:51;20.90;99.90
8824;DHT22;4448;50.904;4.694;2022-09-17T13:24:20;21.00;99.90
8824;DHT22;4448;50.904;4.694;2022-09-17T13:26:47;21.50;99.90
8824;DHT22;4448;50.904;4.694;2022-09-17T13:32:08;22.30;99.90
8824;DHT22;4448;50.904;4.694;2022-09-17T13:34:33;22.80;99.90
8824;DHT22;4448;50.904;4.694;2022-09-17T13:37:04;22.80;99.90
8824;DHT22;4448;50.904;4.694;2022-09-17T13:39:46;23.00;99.90
8824;DHT22;4448;50.904;4.694;2022-09-17T13:45:14;22.80;99.90
8824;DHT22;4448;50.904;4.694;2022-09-17T13:48:03;22.90;99.90
8824;DHT22;4448;50.904;4.694;2022-09-17T13:55:35;20.70;99.90
8824;DHT22;4448;50.904;4.694;2022-09-17T13:58:04;19.50;99.90
8824;DHT22;4448;50.904;4.694;2022-09-17T14:00:55;18.10;99.90
8824;DHT22;4448;50.904;4.694;2022-09-17T14:24:44;18.20;99.90
8824;DHT22;4448;50.904;4.694;2022-09-17T14:27:41;19.10;99.90
8824;DHT22;4448;50.904;4.694;2022-09-17T14:33:01;20.40;99.90
8824;DHT22;4448;50.904;4.694;2022-09-17T14:38:42;21.30;99.90
8824;DHT22;4448;50.904;4.694;2022-09-17T14:43:57;22.10;99.90
8824;DHT22;4448;50.904;4.694;2022-09-17T14:49:22;21.90;99.90
8824;DHT22;4448;50.904;4.694;2022-09-17T14:51:49;21.80;99.90
8824;DHT22;4448;50.904;4.694;2022-09-17T14:59:36;22.70;99.90
8824;DHT22;4448;50.904;4.694;2022-09-17T15:04:51;23.20;99.90
8824;DHT22;4448;50.904;4.694;2022-09-17T15:07:20;22.50;99.90
8824;DHT22;4448;50.904;4.694;2022-09-17T15:09:46;21.60;99.90
8824;DHT22;4448;50.904;4.694;2022-09-17T15:12:16;20.50;99.90
8824;DHT22;4448;50.904;4.694;2022-09-17T15:14:44;19.60;99.90
8824;DHT22;4448;50.904;4.694;2022-09-17T15:17:14;18.80;99.90
8824;DHT22;4448;50.904;4.694;2022-09-17T15:19:43;18.10;99.90
8824;DHT22;4448;50.904;4.694;2022-09-17T15:22:32;17.50;99.90
8824;DHT22;4448;50.904;4.694;2022-09-17T15:25:05;17.20;99.90
8824;DHT22;4448;50.904;4.694;2022-09-17T15:27:33;16.80;99.90
8824;DHT22;4448;50.904;4.694;2022-09-17T15:30:13;16.60;99.90
8824;DHT22;4448;50.904;4.694;2022-09-17T15:32:51;16.30;99.90
8824;DHT22;4448;50.904;4.694;2022-09-17T15:35:31;16.00;99.90
8824;DHT22;4448;50.904;4.694;2022-09-17T15:38:20;15.80;99.90
8824;DHT22;4448;50.904;4.694;2022-09-17T15:40:50;15.70;99.90
8824;DHT22;4448;50.904;4.694;2022-09-17T15:43:26;15.70;99.90
8824;DHT22;4448;50.904;4.694;2022-09-17T15:45:52;15.60;99.90
8824;DHT22;4448;50.904;4.694;2022-09-17T15:48:37;15.50;99.90
8824;DHT22;4448;50.904;4.694;2022-09-17T15:51:11;15.40;99.90
8824;DHT22;4448;50.904;4.694;2022-09-17T15:53:50;15.40;99.90
8824;DHT22;4448;50.904;4.694;2022-09-17T15:56:16;15.40;99.90
8824;DHT22;4448;50.904;4.694;2022-09-17T16:08:43;15.00;99.90
8824;DHT22;4448;50.904;4.694;2022-09-17T16:11:12;14.90;99.90
8824;DHT22;4448;50.904;4.694;2022-09-17T16:13:38;14.80;99.90
8824;DHT22;4448;50.904;4.694;2022-09-17T16:16:04;14.70;99.90
8824;DHT22;4448;50.904;4.694;2022-09-17T16:18:30;14.70;99.90
8824;DHT22;4448;50.904;4.694;2022-09-17T16:20:55;14.80;99.90
8824;DHT22;4448;50.904;4.694;2022-09-17T16:23:21;14.80;99.90
8824;DHT22;4448;50.904;4.694;2022-09-17T16:25:47;14.90;99.90
8824;DHT22;4448;50.904;4.694;2022-09-17T16:28:17;14.90;99.90
8824;DHT22;4448;50.904;4.694;2022-09-17T16:30:45;15.00;99.90
8824;DHT22;4448;50.904;4.694;2022-09-17T16:33:13;15.50;99.90
8824;DHT22;4448;50.904;4.694;2022-09-17T16:35:39;15.80;99.90
8824;DHT22;4448;50.904;4.694;2022-09-17T16:38:05;16.00;99.90
8824;DHT22;4448;50.904;4.694;2022-09-17T16:40:31;16.10;99.90
8824;DHT22;4448;50.904;4.694;2022-09-17T16:43:01;16.10;99.90
8824;DHT22;4448;50.904;4.694;2022-09-17T16:45:28;16.00;99.90
8824;DHT22;4448;50.904;4.694;2022-09-17T16:47:54;15.80;99.90
8824;DHT22;4448;50.904;4.694;2022-09-17T16:50:20;15.50;99.90
8824;DHT22;4448;50.904;4.694;2022-09-17T16:52:46;15.70;99.90
8824;DHT22;4448;50.904;4.694;2022-09-17T16:55:14;16.10;99.90
8824;DHT22;4448;50.904;4.694;2022-09-17T16:57:40;16.60;99.90
8824;DHT22;4448;50.904;4.694;2022-09-17T17:00:08;16.80;99.90
8824;DHT22;4448;50.904;4.694;2022-09-17T17:02:50;16.90;99.90
8824;DHT22;4448;50.904;4.694;2022-09-17T17:05:16;17.00;99.90
8824;DHT22;4448;50.904;4.694;2022-09-17T17:07:42;16.60;99.90
8824;DHT22;4448;50.904;4.694;2022-09-17T17:10:08;16.20;99.90
8824;DHT22;4448;50.904;4.694;2022-09-17T17:12:35;15.80;99.90
8824;DHT22;4448;50.904;4.694;2022-09-17T17:15:02;15.50;99.90
8824;DHT22;4448;50.904;4.694;2022-09-17T17:17:30;15.10;99.90
8824;DHT22;4448;50.904;4.694;2022-09-17T17:19:57;14.80;99.90
8824;DHT22;4448;50.904;4.694;2022-09-17T17:22:23;14.60;99.90
8824;DHT22;4448;50.904;4.694;2022-09-17T17:24:48;14.40;99.90
8824;DHT22;4448;50.904;4.694;2022-09-17T17:27:14;14.30;99.90
8824;DHT22;4448;50.904;4.694;2022-09-17T17:29:40;14.30;99.90
8824;DHT22;4448;50.904;4.694;2022-09-17T17:32:07;14.20;99.90
8824;DHT22;4448;50.904;4.694;2022-09-17T17:34:33;14.20;99.90
8824;DHT22;4448;50.904;4.694;2022-09-17T17:36:59;14.20;99.90
8824;DHT22;4448;50.904;4.694;2022-09-17T17:39:25;14.10;99.90
8824;DHT22;4448;50.904;4.694;2022-09-17T17:41:50;14.00;99.90
8824;DHT22;4448;50.904;4.694;2022-09-17T17:44:18;13.90;99.90
8824;DHT22;4448;50.904;4.694;2022-09-17T17:46:44;13.90;99.90
8824;DHT22;4448;50.904;4.694;2022-09-17T17:49:10;13.80;99.90
8824;DHT22;4448;50.904;4.694;2022-09-17T17:51:35;13.80;99.90
8824;DHT22;4448;50.904;4.694;2022-09-17T17:54:01;13.80;99.90
8824;DHT22;4448;50.904;4.694;2022-09-17T17:56:27;13.80;99.90
8824;DHT22;4448;50.904;4.694;2022-09-17T17:58:54;13.80;99.90
8824;DHT22;4448;50.904;4.694;2022-09-17T18:01:30;13.80;99.90
8824;DHT22;4448;50.904;4.694;2022-09-17T18:04:01;13.70;99.90
8824;DHT22;4448;50.904;4.694;2022-09-17T18:06:27;13.60;99.90
8824;DHT22;4448;50.904;4.694;2022-09-17T18:08:53;13.50;99.90
8824;DHT22;4448;50.904;4.694;2022-09-17T18:11:20;13.40;99.90
8824;DHT22;4448;50.904;4.694;2022-09-17T18:13:50;13.30;99.90
8824;DHT22;4448;50.904;4.694;2022-09-17T18:16:16;13.30;99.90
8824;DHT22;4448;50.904;4.694;2022-09-17T18:18:44;13.30;99.90
8824;DHT22;4448;50.904;4.694;2022-09-17T18:21:12;13.20;99.90
8824;DHT22;4448;50.904;4.694;2022-09-17T18:23:39;13.20;99.90
8824;DHT22;4448;50.904;4.694;2022-09-17T18:26:10;13.20;99.90
8824;DHT22;4448;50.904;4.694;2022-09-17T18:28:37;13.10;99.90
8824;DHT22;4448;50.904;4.694;2022-09-17T18:31:09;13.10;99.90
8824;DHT22;4448;50.904;4.694;2022-09-17T18:33:38;13.10;99.90
8824;DHT22;4448;50.904;4.694;2022-09-17T18:36:04;13.10;99.90
8824;DHT22;4448;50.904;4.694;2022-09-17T18:38:31;13.10;99.90
8824;DHT22;4448;50.904;4.694;2022-09-17T18:41:09;13.10;99.90
8824;DHT22;4448;50.904;4.694;2022-09-17T18:43:35;13.20;99.90
8824;DHT22;4448;50.904;4.694;2022-09-17T18:46:02;13.10;99.90
8824;DHT22;4448;50.904;4.694;2022-09-17T18:48:28;13.10;99.90
8824;DHT22;4448;50.904;4.694;2022-09-17T18:51:06;13.10;99.90
8824;DHT22;4448;50.904;4.694;2022-09-17T18:53:34;13.10;99.90
8824;DHT22;4448;50.904;4.694;2022-09-17T18:56:24;13.10;99.90
8824;DHT22;4448;50.904;4.694;2022-09-17T18:58:52;13.00;99.90
8824;DHT22;4448;50.904;4.694;2022-09-17T19:01:20;13.10;99.90
8824;DHT22;4448;50.904;4.694;2022-09-17T19:03:46;13.10;99.90
8824;DHT22;4448;50.904;4.694;2022-09-17T19:06:13;12.80;99.90
8824;DHT22;4448;50.904;4.694;2022-09-17T19:08:39;12.90;99.90
8824;DHT22;4448;50.904;4.694;2022-09-17T19:11:05;12.90;99.90
8824;DHT22;4448;50.904;4.694;2022-09-17T19:13:33;12.90;99.90
8824;DHT22;4448;50.904;4.694;2022-09-17T19:16:00;12.90;99.90
8824;DHT22;4448;50.904;4.694;2022-09-17T19:18:26;12.90;99.90
8824;DHT22;4448;50.904;4.694;2022-09-17T19:21:09;12.80;99.90
8824;DHT22;4448;50.904;4.694;2022-09-17T19:23:40;12.80;99.90
8824;DHT22;4448;50.904;4.694;2022-09-17T19:26:07;12.80;99.90
8824;DHT22;4448;50.904;4.694;2022-09-17T19:28:33;12.70;99.90
8824;DHT22;4448;50.904;4.694;2022-09-17T19:31:08;12.60;99.90
8824;DHT22;4448;50.904;4.694;2022-09-17T19:33:34;12.60;99.90
8824;DHT22;4448;50.904;4.694;2022-09-17T19:36:02;12.50;99.90
8824;DHT22;4448;50.904;4.694;2022-09-17T19:38:28;12.50;99.90
8824;DHT22;4448;50.904;4.694;2022-09-17T19:40:56;12.50;99.90
8824;DHT22;4448;50.904;4.694;2022-09-17T19:43:21;12.50;99.90
8824;DHT22;4448;50.904;4.694;2022-09-17T19:45:47;12.50;99.90
8824;DHT22;4448;50.904;4.694;2022-09-17T19:48:13;12.40;99.90
8824;DHT22;4448;50.904;4.694;2022-09-17T19:50:38;12.40;99.90
8824;DHT22;4448;50.904;4.694;2022-09-17T19:53:13;12.40;99.90
8824;DHT22;4448;50.904;4.694;2022-09-17T19:55:39;12.40;99.90
8824;DHT22;4448;50.904;4.694;2022-09-17T19:58:04;12.30;99.90
8824;DHT22;4448;50.904;4.694;2022-09-17T20:00:30;12.20;99.90
8824;DHT22;4448;50.904;4.694;2022-09-17T20:02:56;12.20;99.90
8824;DHT22;4448;50.904;4.694;2022-09-17T20:05:22;12.10;99.90